createdAt,value
2023-05-16T00:01:57.814Z,3.08
2023-05-16T00:06:59.153Z,2.72
2023-05-16T00:12:00.538Z,2.20
2023-05-16T00:17:02.026Z,2.20
2023-05-16T00:22:04.287Z,2.50
2023-05-16T00:27:05.780Z,2.47
2023-05-16T00:32:08.745Z,2.50
2023-05-16T00:37:10.276Z,2.08
2023-05-16T00:42:11.719Z,3.58
2023-05-16T00:47:13.125Z,2.30
2023-05-16T00:52:14.574Z,1.88
2023-05-16T00:57:16.306Z,1.85
2023-05-16T01:02:18.011Z,1.40
2023-05-16T01:07:19.475Z,1.65
2023-05-16T01:12:26.271Z,1.92
2023-05-16T01:17:46.566Z,2.22
2023-05-16T01:22:52.788Z,2.03
2023-05-16T01:27:55.027Z,1.75
2023-05-16T01:32:56.683Z,2.40
2023-05-16T01:38:24.681Z,1.75
2023-05-16T01:43:30.786Z,1.90
2023-05-16T01:48:35.350Z,2.10
2023-05-16T01:58:38.602Z,2.50
2023-05-16T02:03:40.016Z,1.60
2023-05-16T02:08:41.418Z,1.80
2023-05-16T02:13:42.884Z,1.73
2023-05-16T02:18:45.878Z,1.85
2023-05-16T02:23:47.272Z,2.38
2023-05-16T02:28:53.702Z,1.88
2023-05-16T02:33:55.038Z,2.58
2023-05-16T02:38:57.415Z,2.40
2023-05-16T02:43:59.097Z,3.35
2023-05-16T02:49:00.620Z,2.25
2023-05-16T02:54:02.098Z,2.00
2023-05-16T02:59:04.263Z,2.33
2023-05-16T03:04:06.081Z,2.42
2023-05-16T03:09:07.855Z,2.15
2023-05-16T03:14:09.424Z,2.25
2023-05-16T03:19:10.948Z,2.70
2023-05-16T03:24:12.485Z,2.22
2023-05-16T03:29:13.953Z,2.00
2023-05-16T03:34:15.350Z,2.03
2023-05-16T03:39:17.097Z,3.30
2023-05-16T03:44:18.681Z,2.70
2023-05-16T03:49:21.194Z,4.00
2023-05-16T03:54:22.533Z,2.75
2023-05-16T03:59:24.072Z,1.85
2023-05-16T04:04:26.034Z,2.20
2023-05-16T04:09:27.470Z,2.05
2023-05-16T04:14:28.808Z,2.42
2023-05-16T04:19:30.192Z,2.03
2023-05-16T04:24:31.966Z,2.65
2023-05-16T04:29:33.313Z,2.65
2023-05-16T04:34:39.766Z,2.38
2023-05-16T04:39:42.572Z,1.38
2023-05-16T04:44:44.045Z,2.33
2023-05-16T04:49:45.490Z,2.05
2023-05-16T04:54:47.029Z,2.88
2023-05-16T04:59:48.921Z,2.13
2023-05-16T05:04:50.465Z,1.17
2023-05-16T05:09:53.449Z,1.40
2023-05-16T05:14:54.997Z,1.42
2023-05-16T05:19:56.759Z,1.60
2023-05-16T05:24:58.436Z,2.80
2023-05-16T05:29:59.950Z,1.13
2023-05-16T05:35:01.324Z,1.40
2023-05-16T05:40:04.083Z,1.63
2023-05-16T05:45:05.790Z,2.33
2023-05-16T05:50:11.382Z,2.10
2023-05-16T05:55:13.044Z,1.38
2023-05-16T06:00:14.986Z,1.83
2023-05-16T06:05:16.664Z,1.65
2023-05-16T06:10:19.164Z,2.38
2023-05-16T06:15:24.078Z,1.63
2023-05-16T06:20:33.061Z,2.33
2023-05-16T06:25:35.844Z,1.90
2023-05-16T06:30:37.190Z,1.73
2023-05-16T06:35:39.486Z,2.03
2023-05-16T06:40:40.945Z,2.20
2023-05-16T06:45:42.571Z,2.08
2023-05-16T06:50:47.284Z,1.75
2023-05-16T06:55:48.863Z,1.92
2023-05-16T07:00:50.848Z,1.88
2023-05-16T07:05:55.318Z,1.90
2023-05-16T07:10:57.373Z,1.98
2023-05-16T07:15:58.860Z,1.42
2023-05-16T07:21:01.926Z,2.20
2023-05-16T07:26:03.823Z,1.53
2023-05-16T07:31:06.842Z,1.42
2023-05-16T07:36:16.065Z,1.42
2023-05-16T07:41:19.124Z,1.92
2023-05-16T07:46:20.745Z,1.50
2023-05-16T07:51:22.286Z,1.77
2023-05-16T07:56:23.739Z,1.60
2023-05-16T08:01:25.339Z,2.08
2023-05-16T08:06:26.849Z,1.77
2023-05-16T08:11:28.630Z,1.70
2023-05-16T08:16:31.276Z,1.35
2023-05-16T08:21:33.039Z,1.25
2023-05-16T08:26:36.423Z,1.58
2023-05-16T08:31:39.651Z,1.27
2023-05-16T08:36:41.953Z,1.52
2023-05-16T08:41:44.109Z,1.70
2023-05-16T08:46:47.189Z,1.60
2023-05-16T08:51:49.146Z,1.73
2023-05-16T08:56:51.069Z,1.67
2023-05-16T09:01:53.212Z,2.03
2023-05-16T09:06:54.616Z,2.95
2023-05-16T09:11:56.359Z,2.05
2023-05-16T09:17:10.793Z,2.70
2023-05-16T09:22:14.595Z,2.22
2023-05-16T09:27:16.309Z,1.90
2023-05-16T09:32:18.456Z,1.88
2023-05-16T09:37:23.061Z,2.33
2023-05-16T09:42:25.718Z,1.45
2023-05-16T09:47:29.074Z,1.50
2023-05-16T09:52:31.271Z,1.57
2023-05-16T09:57:32.856Z,1.80
2023-05-16T10:02:35.167Z,1.98
2023-05-16T10:07:38.161Z,1.77
2023-05-16T10:12:41.863Z,2.45
2023-05-16T10:17:45.588Z,2.75
2023-05-16T10:22:47.753Z,1.83
2023-05-16T10:27:50.081Z,2.25
2023-05-16T10:32:51.987Z,2.13
2023-05-16T10:37:54.258Z,2.63
2023-05-16T10:43:03.243Z,2.67
2023-05-16T10:48:09.356Z,2.13
2023-05-16T10:53:29.147Z,2.42
2023-05-16T10:58:35.232Z,2.38
2023-05-16T11:03:37.377Z,2.63
2023-05-16T11:08:57.719Z,2.33
2023-05-16T11:14:03.653Z,2.35
2023-05-16T11:19:06.860Z,2.25
2023-05-16T11:24:27.182Z,1.73
2023-05-16T11:29:29.390Z,1.70
2023-05-16T11:34:31.247Z,1.25
2023-05-16T11:39:32.789Z,0.93
2023-05-16T11:44:34.246Z,1.10
2023-05-16T11:49:36.143Z,2.60
2023-05-16T11:54:38.980Z,2.08
2023-05-16T11:59:42.973Z,1.30
2023-05-16T12:04:48.584Z,1.10
2023-05-16T12:09:53.928Z,1.48
2023-05-16T12:14:55.453Z,2.05
2023-05-16T12:19:57.011Z,1.77
2023-05-16T12:25:17.741Z,1.92
2023-05-16T12:30:19.305Z,2.50
2023-05-16T12:35:21.062Z,1.73
2023-05-16T12:40:25.824Z,2.40
2023-05-16T12:45:29.861Z,2.28
2023-05-16T12:50:35.011Z,2.17
2023-05-16T12:55:38.358Z,2.65
2023-05-16T13:00:39.875Z,2.10
2023-05-16T13:05:41.575Z,1.92
2023-05-16T13:10:43.003Z,2.53
2023-05-16T13:15:44.994Z,1.95
2023-05-16T13:20:46.485Z,1.35
2023-05-16T13:25:49.573Z,1.45
2023-05-16T13:30:51.623Z,2.40
2023-05-16T13:35:55.318Z,1.70
2023-05-16T13:40:56.954Z,1.80
2023-05-16T13:45:58.430Z,1.63
2023-05-16T13:51:00.206Z,1.02
2023-05-16T13:56:01.910Z,1.40
2023-05-16T14:01:03.903Z,1.70
2023-05-16T14:06:05.424Z,1.00
2023-05-16T14:11:07.127Z,1.45
2023-05-16T14:16:11.694Z,1.20
2023-05-16T14:21:15.299Z,2.58
2023-05-16T14:26:18.381Z,1.92
2023-05-16T14:31:19.854Z,2.15
2023-05-16T14:36:23.395Z,2.88
2023-05-16T14:41:28.977Z,2.20
2023-05-16T14:46:30.573Z,4.20
2023-05-16T14:51:34.123Z,5.75
2023-05-16T14:56:36.247Z,6.13
2023-05-16T15:01:37.817Z,5.75
2023-05-16T15:06:39.299Z,3.38
2023-05-16T15:11:41.288Z,2.33
2023-05-16T15:16:43.079Z,2.30
2023-05-16T15:21:44.769Z,3.22
2023-05-16T15:26:46.297Z,2.00
2023-05-16T15:31:47.779Z,2.10
2023-05-16T15:36:50.010Z,4.47
2023-05-16T15:42:09.311Z,3.67
2023-05-16T15:47:12.691Z,3.70
2023-05-16T15:52:15.423Z,2.92
2023-05-16T15:57:17.280Z,2.58
2023-05-16T16:02:23.483Z,1.98
2023-05-16T16:07:27.431Z,2.17
2023-05-16T16:12:31.276Z,2.47
2023-05-16T16:17:34.470Z,2.45
2023-05-16T16:22:36.373Z,3.17
2023-05-16T16:27:37.966Z,4.00
2023-05-16T16:32:39.481Z,3.20
2023-05-16T16:37:43.023Z,3.90
2023-05-16T16:42:50.812Z,4.32
2023-05-16T16:47:53.282Z,5.20
2023-05-16T16:52:55.106Z,5.90
2023-05-16T16:57:56.551Z,4.72
2023-05-16T17:02:59.836Z,5.30
2023-05-16T17:13:07.252Z,4.47
2023-05-16T17:18:09.130Z,5.47
2023-05-16T17:23:13.255Z,5.38
2023-05-16T17:28:17.838Z,5.18
2023-05-16T17:33:23.039Z,6.57
2023-05-16T17:38:30.291Z,6.18
2023-05-16T17:43:39.026Z,6.75
2023-05-16T17:48:42.385Z,6.43
2023-05-16T17:53:44.291Z,5.40
2023-05-16T17:58:46.164Z,6.63
2023-05-16T18:03:47.954Z,6.65
2023-05-16T18:08:51.736Z,6.20
2023-05-16T18:18:55.605Z,7.25
2023-05-16T18:23:59.536Z,6.95
2023-05-16T18:29:01.713Z,6.93
2023-05-16T18:34:03.579Z,6.82
2023-05-16T18:39:05.561Z,6.82
2023-05-16T18:44:07.087Z,6.32
2023-05-16T18:49:09.025Z,5.82
2023-05-16T18:54:10.471Z,6.70
2023-05-16T18:59:12.151Z,5.95
2023-05-16T19:04:13.626Z,6.32
2023-05-16T19:09:15.122Z,6.53
2023-05-16T19:14:16.654Z,7.65
2023-05-16T19:19:18.248Z,10.50
2023-05-16T19:24:19.822Z,7.20
2023-05-16T19:29:22.249Z,6.50
2023-05-16T19:34:26.474Z,6.32
2023-05-16T19:39:28.484Z,6.43
2023-05-16T19:44:29.910Z,5.68
2023-05-16T19:49:31.988Z,6.50
2023-05-16T19:54:33.529Z,6.07
2023-05-16T19:59:34.957Z,6.93
2023-05-16T20:04:36.386Z,5.60
2023-05-16T20:09:37.901Z,5.72
2023-05-16T20:14:39.557Z,5.95
2023-05-16T20:19:44.350Z,6.13
2023-05-16T20:24:45.910Z,7.00
2023-05-16T20:29:49.408Z,5.65
2023-05-16T20:34:50.793Z,6.75
2023-05-16T20:39:55.636Z,6.15
2023-05-16T20:44:57.072Z,6.00
2023-05-16T20:49:58.709Z,5.88
2023-05-16T20:55:01.269Z,7.72
2023-05-16T21:00:02.909Z,5.07
2023-05-16T21:05:23.109Z,4.80
2023-05-16T21:10:26.643Z,5.20
2023-05-16T21:15:28.568Z,5.30
2023-05-16T21:20:30.667Z,5.60
2023-05-16T21:25:32.113Z,6.15
2023-05-16T21:30:33.498Z,7.22
2023-05-16T21:35:35.031Z,5.03
2023-05-16T21:40:36.436Z,5.10
2023-05-16T21:45:38.112Z,5.13
2023-05-16T21:50:39.553Z,5.57
2023-05-16T21:55:40.962Z,6.32
2023-05-16T22:00:42.598Z,5.57
2023-05-16T22:05:44.175Z,5.90
2023-05-16T22:10:45.578Z,4.50
2023-05-16T22:15:59.486Z,4.93
2023-05-16T22:21:06.221Z,4.60
2023-05-16T22:26:07.648Z,4.17
2023-05-16T22:31:09.012Z,4.17
2023-05-16T22:36:10.532Z,3.97
2023-05-16T22:41:11.966Z,4.50
2023-05-16T22:46:13.649Z,3.63
2023-05-16T22:51:15.033Z,3.80
2023-05-16T22:56:16.447Z,4.13
2023-05-16T23:01:18.419Z,3.17
2023-05-16T23:06:20.249Z,3.53
2023-05-16T23:11:22.464Z,3.53
2023-05-16T23:16:23.852Z,3.93
2023-05-16T23:21:25.340Z,4.30
2023-05-16T23:26:26.789Z,3.60
2023-05-16T23:31:28.255Z,4.17
2023-05-16T23:36:29.620Z,2.87
2023-05-16T23:41:31.109Z,3.23
2023-05-16T23:46:32.531Z,3.03
2023-05-16T23:51:52.308Z,2.70
2023-05-16T23:56:55.442Z,2.80
